createdAt,value
2022-12-22T00:02:23.664Z,5.58
2022-12-22T00:05:47.867Z,5.58
2022-12-22T00:09:08.579Z,5.59
2022-12-22T00:12:30.011Z,5.59
2022-12-22T00:15:52.739Z,5.64
2022-12-22T00:19:15.115Z,5.67
2022-12-22T00:22:37.456Z,5.68
2022-12-22T00:25:57.937Z,5.71
2022-12-22T00:29:17.937Z,5.70
2022-12-22T00:32:38.356Z,5.73
2022-12-22T00:35:59.884Z,5.72
2022-12-22T00:39:23.013Z,5.74
2022-12-22T00:42:43.231Z,5.74
2022-12-22T00:46:03.632Z,5.75
2022-12-22T00:49:23.813Z,5.74
2022-12-22T00:52:45.103Z,5.77
2022-12-22T00:56:05.760Z,5.77
2022-12-22T00:59:29.796Z,5.79
2022-12-22T01:02:50.241Z,5.79
2022-12-22T01:06:10.553Z,5.82
2022-12-22T01:09:32.448Z,5.81
2022-12-22T01:12:54.693Z,5.84
2022-12-22T01:16:15.073Z,5.85
2022-12-22T01:19:35.650Z,5.86
2022-12-22T01:22:56.011Z,5.90
2022-12-22T01:26:18.874Z,5.91
2022-12-22T01:29:38.880Z,5.90
2022-12-22T01:32:59.303Z,5.93
2022-12-22T01:36:19.574Z,5.93
2022-12-22T01:39:39.935Z,5.97
2022-12-22T01:43:01.424Z,5.99
2022-12-22T01:46:36.749Z,6.00
2022-12-22T01:49:59.811Z,6.03
2022-12-22T01:53:22.766Z,6.04
2022-12-22T01:56:43.184Z,6.06
2022-12-22T02:00:04.668Z,6.10
2022-12-22T02:03:33.783Z,6.13
2022-12-22T02:06:59.953Z,6.15
2022-12-22T02:10:26.320Z,6.14
2022-12-22T02:13:52.373Z,6.21
2022-12-22T02:17:17.578Z,6.23
2022-12-22T02:20:44.435Z,6.23
2022-12-22T02:24:18.112Z,6.27
2022-12-22T02:27:42.387Z,6.27
2022-12-22T02:31:02.645Z,6.28
2022-12-22T02:34:31.251Z,6.26
2022-12-22T02:37:58.087Z,6.27
2022-12-22T02:41:25.527Z,6.27
2022-12-22T02:44:53.800Z,6.31
2022-12-22T02:48:20.832Z,6.28
2022-12-22T02:51:43.042Z,6.28
2022-12-22T02:55:03.255Z,6.30
2022-12-22T02:58:23.571Z,6.33
2022-12-22T03:01:45.406Z,6.26
2022-12-22T03:05:05.753Z,6.24
2022-12-22T03:08:25.948Z,6.22
2022-12-22T03:11:46.302Z,6.19
2022-12-22T03:15:06.484Z,6.22
2022-12-22T03:18:29.270Z,6.25
2022-12-22T03:21:49.575Z,6.29
2022-12-22T03:25:09.682Z,6.32
2022-12-22T03:28:11.642Z,6.33
2022-12-22T03:31:13.219Z,6.34
2022-12-22T03:34:16.229Z,6.38
2022-12-22T03:37:17.748Z,6.44
2022-12-22T03:40:19.376Z,6.46
2022-12-22T03:43:39.821Z,6.46
2022-12-22T03:46:41.384Z,6.46
2022-12-22T03:49:44.406Z,6.44
2022-12-22T03:52:46.437Z,6.47
2022-12-22T03:55:47.996Z,6.49
2022-12-22T03:58:49.573Z,6.49
2022-12-22T04:01:52.150Z,6.49
2022-12-22T04:04:55.315Z,6.50
2022-12-22T04:07:56.867Z,6.50
2022-12-22T04:11:17.054Z,6.50
2022-12-22T04:14:18.574Z,6.51
2022-12-22T04:17:20.412Z,6.55
2022-12-22T04:20:26.685Z,6.54
2022-12-22T04:23:28.413Z,6.53
2022-12-22T04:26:29.957Z,6.58
2022-12-22T04:29:31.606Z,6.58
2022-12-22T04:32:33.390Z,6.57
2022-12-22T04:35:36.358Z,6.56
2022-12-22T04:38:38.339Z,6.58
2022-12-22T04:41:39.991Z,6.60
2022-12-22T04:44:42.453Z,6.65
2022-12-22T04:47:44.090Z,6.66
2022-12-22T04:50:49.740Z,6.67
2022-12-22T04:53:51.238Z,6.68
2022-12-22T04:56:52.857Z,6.66
2022-12-22T04:59:55.346Z,6.64
2022-12-22T05:02:56.961Z,6.68
2022-12-22T05:05:59.969Z,6.69
2022-12-22T05:09:01.714Z,6.71
2022-12-22T05:12:23.431Z,6.73
2022-12-22T05:15:26.406Z,6.72
2022-12-22T05:18:28.142Z,6.73
2022-12-22T05:21:31.092Z,6.75
2022-12-22T05:24:33.615Z,6.75
2022-12-22T05:27:35.393Z,6.76
2022-12-22T05:30:36.945Z,6.77
2022-12-22T05:33:38.829Z,6.79
2022-12-22T05:36:41.723Z,6.79
2022-12-22T05:39:43.352Z,6.79
2022-12-22T05:42:45.150Z,6.82
2022-12-22T05:45:47.314Z,6.81
2022-12-22T05:48:49.446Z,6.81
2022-12-22T05:51:54.150Z,6.83
2022-12-22T05:54:55.912Z,6.83
2022-12-22T05:57:57.756Z,6.87
2022-12-22T06:00:59.896Z,6.87
2022-12-22T06:04:01.737Z,6.88
2022-12-22T06:07:07.131Z,6.87
2022-12-22T06:10:12.529Z,6.88
2022-12-22T06:13:14.462Z,6.87
2022-12-22T06:16:16.081Z,6.87
2022-12-22T06:19:17.840Z,6.89
2022-12-22T06:22:20.969Z,6.90
2022-12-22T06:25:22.594Z,6.92
2022-12-22T06:28:24.272Z,6.94
2022-12-22T06:31:25.902Z,6.92
2022-12-22T06:34:27.792Z,6.92
2022-12-22T06:37:30.882Z,6.94
2022-12-22T06:40:32.644Z,6.94
2022-12-22T06:43:34.303Z,6.95
2022-12-22T06:46:35.874Z,6.95
2022-12-22T06:49:37.659Z,6.96
2022-12-22T06:52:40.855Z,6.99
2022-12-22T06:55:42.624Z,7.00
2022-12-22T06:58:44.332Z,7.00
2022-12-22T07:01:45.877Z,7.01
2022-12-22T07:04:47.499Z,7.02
2022-12-22T07:07:50.960Z,7.03
2022-12-22T07:10:58.645Z,7.04
2022-12-22T07:14:00.391Z,7.03
2022-12-22T07:17:02.181Z,7.04
2022-12-22T07:20:04.110Z,7.02
2022-12-22T07:23:07.115Z,7.03
2022-12-22T07:26:09.455Z,7.04
2022-12-22T07:29:11.053Z,7.03
2022-12-22T07:32:12.728Z,7.03
2022-12-22T07:35:14.393Z,7.03
2022-12-22T07:38:17.338Z,7.04
2022-12-22T07:41:38.361Z,7.04
2022-12-22T07:44:41.565Z,7.04
2022-12-22T07:47:43.770Z,7.04
2022-12-22T07:50:45.381Z,7.03
2022-12-22T07:53:48.348Z,7.06
2022-12-22T07:56:49.915Z,7.06
2022-12-22T07:59:51.467Z,7.05
2022-12-22T08:02:53.991Z,7.09
2022-12-22T08:05:55.636Z,7.11
2022-12-22T08:08:58.565Z,7.10
2022-12-22T08:12:00.107Z,7.12
2022-12-22T08:15:01.799Z,7.13
2022-12-22T08:18:03.452Z,7.13
2022-12-22T08:21:05.929Z,7.13
2022-12-22T08:24:09.442Z,7.14
2022-12-22T08:27:13.084Z,7.13
2022-12-22T08:30:15.341Z,7.12
2022-12-22T08:33:16.962Z,7.12
2022-12-22T08:36:18.625Z,7.12
2022-12-22T08:39:22.529Z,7.12
2022-12-22T08:42:25.036Z,7.12
2022-12-22T08:45:27.029Z,7.13
2022-12-22T08:48:28.891Z,7.13
2022-12-22T08:51:30.479Z,7.15
2022-12-22T08:54:34.145Z,7.13
2022-12-22T08:57:35.811Z,7.14
2022-12-22T09:00:37.473Z,7.13
2022-12-22T09:03:38.985Z,7.15
2022-12-22T09:06:41.556Z,7.16
2022-12-22T09:09:45.542Z,7.16
2022-12-22T09:12:48.037Z,7.14
2022-12-22T09:15:49.707Z,7.17
2022-12-22T09:18:51.515Z,7.19
2022-12-22T09:21:53.247Z,7.20
2022-12-22T09:24:56.414Z,7.19
2022-12-22T09:27:57.978Z,7.20
2022-12-22T09:30:59.526Z,7.22
2022-12-22T09:34:01.451Z,7.23
2022-12-22T09:37:06.616Z,7.28
2022-12-22T09:40:10.877Z,7.34
2022-12-22T09:43:14.888Z,7.40
2022-12-22T09:46:20.013Z,7.44
2022-12-22T09:49:23.159Z,7.45
2022-12-22T09:52:30.718Z,7.42
2022-12-22T09:55:40.308Z,7.41
2022-12-22T09:58:43.003Z,7.40
2022-12-22T10:01:55.193Z,7.38
2022-12-22T10:05:05.956Z,7.33
2022-12-22T10:08:11.412Z,7.28
2022-12-22T10:11:16.688Z,7.21
2022-12-22T10:14:18.286Z,7.16
2022-12-22T10:17:21.833Z,7.14
2022-12-22T10:20:27.738Z,7.15
2022-12-22T10:23:31.940Z,7.20
2022-12-22T10:26:34.845Z,7.25
2022-12-22T10:29:36.589Z,7.26
2022-12-22T10:32:38.161Z,7.23
2022-12-22T10:35:44.734Z,7.21
2022-12-22T10:38:54.897Z,7.22
2022-12-22T10:42:00.728Z,7.24
2022-12-22T10:45:02.238Z,7.29
2022-12-22T10:48:04.213Z,7.37
2022-12-22T10:51:07.031Z,7.40
2022-12-22T10:54:08.791Z,7.43
2022-12-22T10:57:29.029Z,7.44
2022-12-22T11:00:31.488Z,7.46
2022-12-22T11:03:33.183Z,7.45
2022-12-22T11:06:34.929Z,7.44
2022-12-22T11:09:36.504Z,7.47
2022-12-22T11:12:46.087Z,7.46
2022-12-22T11:15:51.421Z,7.41
2022-12-22T11:19:03.111Z,7.39
2022-12-22T11:22:09.218Z,7.32
2022-12-22T11:25:28.809Z,7.30
2022-12-22T11:28:39.667Z,7.25
2022-12-22T11:31:53.750Z,7.21
2022-12-22T11:34:59.085Z,7.19
2022-12-22T11:38:06.423Z,7.15
2022-12-22T11:41:14.984Z,7.15
2022-12-22T11:44:30.750Z,7.13
2022-12-22T11:47:38.047Z,7.09
2022-12-22T11:50:59.670Z,7.06
2022-12-22T11:54:15.208Z,7.06
2022-12-22T11:57:26.320Z,7.08
2022-12-22T12:01:04.207Z,7.07
2022-12-22T12:04:16.766Z,7.06
2022-12-22T12:07:26.030Z,7.06
2022-12-22T12:10:28.867Z,7.08
2022-12-22T12:13:37.487Z,7.07
2022-12-22T12:16:46.178Z,7.10
2022-12-22T12:19:59.903Z,7.13
2022-12-22T12:23:13.925Z,7.14
2022-12-22T12:26:18.225Z,7.14
2022-12-22T12:29:21.216Z,7.13
2022-12-22T12:32:28.705Z,7.14
2022-12-22T12:35:43.755Z,7.16
2022-12-22T12:42:16.512Z,7.23
2022-12-22T12:45:35.081Z,7.24
2022-12-22T12:48:40.289Z,7.29
2022-12-22T12:51:46.404Z,7.31
2022-12-22T12:54:48.153Z,7.28
2022-12-22T12:57:50.031Z,7.28
2022-12-22T13:00:57.079Z,7.29
2022-12-22T13:04:04.272Z,7.28
2022-12-22T13:07:06.794Z,7.26
2022-12-22T13:10:18.129Z,7.26
2022-12-22T13:13:39.930Z,7.23
2022-12-22T13:16:41.654Z,7.20
2022-12-22T13:19:47.273Z,7.14
2022-12-22T13:22:51.998Z,7.09
2022-12-22T13:25:56.616Z,7.03
2022-12-22T13:28:59.193Z,6.98
2022-12-22T13:32:02.088Z,6.96
2022-12-22T13:38:35.176Z,6.96
2022-12-22T13:41:40.535Z,6.96
2022-12-22T13:44:42.975Z,6.97
2022-12-22T13:47:45.114Z,6.95
2022-12-22T13:50:50.923Z,6.96
2022-12-22T13:54:11.697Z,6.97
2022-12-22T13:57:16.588Z,6.96
2022-12-22T14:00:19.497Z,6.94
2022-12-22T14:03:50.129Z,6.88
2022-12-22T14:06:44.982Z,6.84
2022-12-22T14:09:47.247Z,6.79
2022-12-22T14:12:48.831Z,6.75
2022-12-22T14:15:59.511Z,6.75
2022-12-22T14:19:01.218Z,6.69
2022-12-22T14:22:08.377Z,6.65
2022-12-22T14:25:14.068Z,6.66
2022-12-22T14:28:18.186Z,6.67
2022-12-22T14:31:20.132Z,6.64
2022-12-22T14:34:26.843Z,6.65
2022-12-22T14:37:32.928Z,6.71
2022-12-22T14:40:36.965Z,6.73
2022-12-22T14:43:40.054Z,6.73
2022-12-22T14:46:42.638Z,6.72
2022-12-22T14:49:45.568Z,6.66
2022-12-22T14:52:51.819Z,6.60
2022-12-22T14:55:54.093Z,6.59
2022-12-22T14:59:09.999Z,6.50
2022-12-22T15:02:22.007Z,6.47
2022-12-22T15:05:25.878Z,6.45
2022-12-22T15:08:38.723Z,6.39
2022-12-22T15:11:42.073Z,6.33
2022-12-22T15:14:47.973Z,6.32
2022-12-22T15:17:50.823Z,6.25
2022-12-22T15:20:52.558Z,6.25
2022-12-22T15:23:54.226Z,6.21
2022-12-22T15:26:55.832Z,6.17
2022-12-22T15:29:58.865Z,6.15
2022-12-22T15:33:00.583Z,6.12
2022-12-22T15:36:03.580Z,6.12
2022-12-22T15:39:09.263Z,6.14
2022-12-22T15:42:10.949Z,6.14
2022-12-22T15:45:14.449Z,6.15
2022-12-22T15:48:18.883Z,6.09
2022-12-22T15:51:24.828Z,6.02
2022-12-22T15:54:27.993Z,5.98
2022-12-22T15:57:29.660Z,5.96
2022-12-22T16:00:32.825Z,5.99
2022-12-22T16:03:34.438Z,6.05
2022-12-22T16:06:36.243Z,6.07
2022-12-22T16:09:39.970Z,6.06
2022-12-22T16:12:43.276Z,6.13
2022-12-22T16:15:46.559Z,6.15
2022-12-22T16:18:48.480Z,6.14
2022-12-22T16:21:51.997Z,6.19
2022-12-22T16:24:53.821Z,6.17
2022-12-22T16:27:55.471Z,6.12
2022-12-22T16:30:59.619Z,6.05
2022-12-22T16:34:01.194Z,6.03
2022-12-22T16:37:02.740Z,5.98
2022-12-22T16:40:05.062Z,5.99
2022-12-22T16:46:35.584Z,5.88
2022-12-22T16:49:38.318Z,5.86
2022-12-22T16:52:40.983Z,5.85
2022-12-22T16:55:42.867Z,5.81
2022-12-22T16:58:44.437Z,5.81
2022-12-22T17:01:49.878Z,5.66
2022-12-22T17:04:52.668Z,5.70
2022-12-22T17:07:56.392Z,5.79
2022-12-22T17:11:01.143Z,5.82
2022-12-22T17:14:06.897Z,5.79
2022-12-22T17:17:13.313Z,5.81
2022-12-22T17:20:15.337Z,5.83
2022-12-22T17:23:25.307Z,5.90
2022-12-22T17:26:26.871Z,5.88
2022-12-22T17:29:30.020Z,5.90
2022-12-22T17:32:33.012Z,5.86
2022-12-22T17:35:35.982Z,5.83
2022-12-22T17:38:37.477Z,5.76
2022-12-22T17:41:39.323Z,5.69
2022-12-22T17:44:41.065Z,5.77
2022-12-22T17:47:44.049Z,5.75
2022-12-22T17:50:50.194Z,5.74
2022-12-22T17:53:52.812Z,5.71
2022-12-22T17:56:58.634Z,5.67
2022-12-22T18:00:00.667Z,5.64
2022-12-22T18:03:04.133Z,5.63
2022-12-22T18:06:05.909Z,5.62
2022-12-22T18:09:10.519Z,5.63
2022-12-22T18:12:15.448Z,5.68
2022-12-22T18:15:17.456Z,5.70
2022-12-22T18:18:20.967Z,5.70
2022-12-22T18:21:24.106Z,5.68
2022-12-22T18:24:25.764Z,5.68
2022-12-22T18:27:27.579Z,5.72
2022-12-22T18:30:30.013Z,5.75
2022-12-22T18:33:33.113Z,5.75
2022-12-22T18:36:35.403Z,5.72
2022-12-22T18:39:37.729Z,5.75
2022-12-22T18:42:39.412Z,5.78
2022-12-22T18:45:41.013Z,5.80
2022-12-22T18:48:44.281Z,5.82
2022-12-22T18:51:45.925Z,5.82
2022-12-22T18:54:47.763Z,5.85
2022-12-22T18:57:50.468Z,5.86
2022-12-22T19:00:52.765Z,5.83
2022-12-22T19:03:56.601Z,5.85
2022-12-22T19:06:58.116Z,5.83
2022-12-22T19:09:59.644Z,5.85
2022-12-22T19:13:03.062Z,5.85
2022-12-22T19:16:05.257Z,5.85
2022-12-22T19:19:10.331Z,5.85
2022-12-22T19:22:13.568Z,5.85
2022-12-22T19:25:15.528Z,5.86
2022-12-22T19:28:24.165Z,5.85
2022-12-22T19:31:27.114Z,5.84
2022-12-22T19:34:30.429Z,5.83
2022-12-22T19:37:32.015Z,5.83
2022-12-22T19:40:33.773Z,5.85
2022-12-22T19:43:35.344Z,5.86
2022-12-22T19:46:37.236Z,5.87
2022-12-22T19:49:40.121Z,5.88
2022-12-22T19:52:41.790Z,5.90
2022-12-22T19:55:48.732Z,5.86
2022-12-22T19:58:50.347Z,5.81
2022-12-22T20:01:52.077Z,5.78
2022-12-22T20:04:55.557Z,5.75
2022-12-22T20:07:58.649Z,5.71
2022-12-22T20:11:00.351Z,5.70
2022-12-22T20:14:02.944Z,5.65
2022-12-22T20:17:04.622Z,5.61
2022-12-22T20:20:13.319Z,5.60
2022-12-22T20:23:16.041Z,5.58
2022-12-22T20:26:20.097Z,5.61
2022-12-22T20:29:22.597Z,5.62
2022-12-22T20:32:27.835Z,5.63
2022-12-22T20:35:31.468Z,5.66
2022-12-22T20:38:34.658Z,5.66
2022-12-22T20:41:36.180Z,5.67
2022-12-22T20:44:37.805Z,5.64
2022-12-22T20:47:59.700Z,5.66
2022-12-22T20:51:03.451Z,5.70
2022-12-22T20:54:05.164Z,5.72
2022-12-22T20:57:11.457Z,5.70
2022-12-22T21:00:17.379Z,5.71
2022-12-22T21:03:19.320Z,5.71
2022-12-22T21:06:24.361Z,5.72
2022-12-22T21:09:26.995Z,5.74
2022-12-22T21:12:28.648Z,5.77
2022-12-22T21:15:30.299Z,5.77
2022-12-22T21:18:31.943Z,5.79
2022-12-22T21:21:35.107Z,5.80
2022-12-22T21:24:36.759Z,5.81
2022-12-22T21:27:39.482Z,5.84
2022-12-22T21:30:41.035Z,5.87
2022-12-22T21:33:42.702Z,5.88
2022-12-22T21:36:46.793Z,5.95
2022-12-22T21:39:48.380Z,5.96
2022-12-22T21:42:50.601Z,5.99
2022-12-22T21:45:52.460Z,6.01
2022-12-22T21:48:54.077Z,6.05
2022-12-22T21:51:56.995Z,6.07
2022-12-22T21:54:58.528Z,6.09
2022-12-22T21:58:00.633Z,6.10
2022-12-22T22:01:02.954Z,6.15
2022-12-22T22:04:04.699Z,6.16
2022-12-22T22:07:07.755Z,6.19
2022-12-22T22:10:10.050Z,6.19
2022-12-22T22:13:13.425Z,6.20
2022-12-22T22:16:15.934Z,6.25
2022-12-22T22:19:20.531Z,6.28
2022-12-22T22:22:25.945Z,6.29
2022-12-22T22:25:27.798Z,6.29
2022-12-22T22:28:29.639Z,6.30
2022-12-22T22:31:31.266Z,6.31
2022-12-22T22:34:32.884Z,6.35
2022-12-22T22:37:36.076Z,6.34
2022-12-22T22:40:37.888Z,6.35
2022-12-22T22:43:39.514Z,6.38
2022-12-22T22:46:41.200Z,6.42
2022-12-22T22:49:42.859Z,6.43
2022-12-22T22:52:46.450Z,6.44
2022-12-22T22:55:50.958Z,6.46
2022-12-22T22:58:53.534Z,6.47
2022-12-22T23:01:55.236Z,6.49
2022-12-22T23:04:56.938Z,6.49
2022-12-22T23:07:59.878Z,6.49
2022-12-22T23:11:02.154Z,6.50
2022-12-22T23:14:04.062Z,6.50
2022-12-22T23:17:05.695Z,6.52
2022-12-22T23:20:08.157Z,6.52
2022-12-22T23:23:11.061Z,6.55
2022-12-22T23:26:12.705Z,6.54
2022-12-22T23:29:14.174Z,6.57
2022-12-22T23:32:15.697Z,6.63
2022-12-22T23:35:17.203Z,6.64
2022-12-22T23:38:21.048Z,6.65
2022-12-22T23:41:22.669Z,6.68
2022-12-22T23:44:24.330Z,6.73
2022-12-22T23:47:26.103Z,6.77
2022-12-22T23:50:27.766Z,6.83
2022-12-22T23:53:30.714Z,6.84
2022-12-22T23:56:32.533Z,6.90
2022-12-22T23:59:34.100Z,6.92
